createdAt,value
2018-05-03T00:00:49.886Z,12.22
2018-05-03T00:01:49.828Z,12.19
2018-05-03T00:02:49.835Z,12.18
2018-05-03T00:03:49.773Z,12.19
2018-05-03T00:04:49.753Z,12.13
2018-05-03T00:05:49.713Z,12.19
2018-05-03T00:06:49.691Z,12.19
2018-05-03T00:07:50.161Z,12.16
2018-05-03T00:08:49.633Z,12.18
2018-05-03T00:09:49.607Z,12.19
2018-05-03T00:10:49.577Z,12.07
2018-05-03T00:11:49.553Z,12.11
2018-05-03T00:12:49.560Z,12.04
2018-05-03T00:13:49.500Z,11.95
2018-05-03T00:14:49.469Z,11.89
2018-05-03T00:15:49.444Z,12.01
2018-05-03T00:16:49.443Z,12.05
2018-05-03T00:17:49.390Z,11.98
2018-05-03T00:18:49.435Z,12.04
2018-05-03T00:19:49.334Z,12.04
2018-05-03T00:20:49.304Z,12.01
2018-05-03T00:21:49.280Z,11.97
2018-05-03T00:22:49.254Z,12.07
2018-05-03T00:23:49.276Z,11.97
2018-05-03T00:24:49.202Z,12.01
2018-05-03T00:25:49.172Z,11.95
2018-05-03T00:26:49.146Z,12.04
2018-05-03T00:27:49.120Z,12.03
2018-05-03T00:28:49.128Z,11.95
2018-05-03T00:29:49.065Z,11.88
2018-05-03T00:30:49.072Z,11.94
2018-05-03T00:31:49.018Z,11.89
2018-05-03T00:32:48.983Z,11.97
2018-05-03T00:33:48.964Z,11.95
2018-05-03T00:34:48.971Z,11.91
2018-05-03T00:35:48.909Z,11.84
2018-05-03T00:36:48.885Z,11.85
2018-05-03T00:37:48.852Z,11.78
2018-05-03T00:38:48.821Z,11.79
2018-05-03T00:39:48.846Z,11.76
2018-05-03T00:40:48.770Z,11.79
2018-05-03T00:41:48.748Z,11.79
2018-05-03T00:42:48.724Z,11.84
2018-05-03T00:43:48.695Z,11.71
2018-05-03T00:44:48.688Z,11.84
2018-05-03T00:45:48.673Z,11.78
2018-05-03T00:46:48.605Z,11.76
2018-05-03T00:47:48.585Z,11.82
2018-05-03T00:48:48.554Z,11.76
2018-05-03T00:49:48.528Z,11.84
2018-05-03T00:50:48.533Z,11.82
2018-05-03T00:51:48.473Z,11.75
2018-05-03T00:52:48.444Z,11.79
2018-05-03T00:53:48.425Z,11.78
2018-05-03T00:54:48.397Z,11.82
2018-05-03T00:55:48.398Z,11.82
2018-05-03T00:56:48.343Z,11.84
2018-05-03T00:57:48.309Z,11.84
2018-05-03T00:58:48.282Z,11.81
2018-05-03T00:59:48.263Z,11.84
2018-05-03T01:00:48.274Z,11.85
2018-05-03T01:01:48.202Z,11.81
2018-05-03T01:02:48.182Z,11.84
2018-05-03T01:03:48.153Z,11.89
2018-05-03T01:04:48.155Z,11.85
2018-05-03T01:05:48.102Z,11.76
2018-05-03T01:06:48.072Z,11.81
2018-05-03T01:07:48.087Z,11.84
2018-05-03T01:08:48.043Z,11.85
2018-05-03T01:09:48.027Z,11.79
2018-05-03T01:10:47.963Z,11.75
2018-05-03T01:11:47.938Z,11.75
2018-05-03T01:12:47.908Z,11.79
2018-05-03T01:13:47.909Z,11.82
2018-05-03T01:14:47.854Z,11.76
2018-05-03T01:15:47.868Z,11.70
2018-05-03T01:16:47.818Z,11.75
2018-05-03T01:17:47.778Z,11.66
2018-05-03T01:18:47.745Z,11.78
2018-05-03T01:19:47.758Z,11.66
2018-05-03T01:20:47.698Z,11.73
2018-05-03T01:21:47.663Z,11.67
2018-05-03T01:22:47.639Z,11.70
2018-05-03T01:23:47.616Z,11.59
2018-05-03T01:24:47.627Z,11.63
2018-05-03T01:25:47.596Z,11.61
2018-05-03T01:26:47.529Z,11.68
2018-05-03T01:27:47.503Z,11.70
2018-05-03T01:28:47.479Z,11.76
2018-05-03T01:29:47.487Z,11.66
2018-05-03T01:30:47.423Z,11.73
2018-05-03T01:31:47.433Z,11.73
2018-05-03T01:32:47.366Z,11.73
2018-05-03T01:33:47.343Z,11.67
2018-05-03T01:34:47.317Z,11.70
2018-05-03T01:35:47.293Z,11.66
2018-05-03T01:36:47.298Z,11.67
2018-05-03T01:37:47.234Z,11.66
2018-05-03T01:38:47.206Z,11.66
2018-05-03T01:39:47.179Z,11.68
2018-05-03T01:40:47.164Z,11.56
2018-05-03T01:41:47.175Z,11.59
2018-05-03T01:42:47.101Z,11.60
2018-05-03T01:43:47.079Z,11.59
2018-05-03T01:44:47.044Z,11.53
2018-05-03T01:45:47.024Z,11.63
2018-05-03T01:46:47.032Z,11.57
2018-05-03T01:47:47.008Z,11.64
2018-05-03T01:48:46.937Z,11.63
2018-05-03T01:49:46.919Z,11.59
2018-05-03T01:50:46.885Z,11.61
2018-05-03T01:51:46.854Z,11.60
2018-05-03T01:52:46.858Z,11.60
2018-05-03T01:53:46.800Z,11.59
2018-05-03T01:54:46.779Z,11.59
2018-05-03T01:55:46.788Z,11.61
2018-05-03T01:56:46.722Z,11.57
2018-05-03T01:57:46.721Z,11.57
2018-05-03T01:58:46.673Z,11.61
2018-05-03T01:59:46.641Z,11.61
2018-05-03T02:00:46.612Z,11.51
2018-05-03T02:01:46.587Z,11.61
2018-05-03T02:02:46.589Z,11.53
2018-05-03T02:03:46.575Z,11.53
2018-05-03T02:04:46.512Z,11.59
2018-05-03T02:05:46.728Z,11.52
2018-05-03T02:06:46.454Z,11.48
2018-05-03T02:07:46.463Z,11.57
2018-05-03T02:08:46.397Z,11.57
2018-05-03T02:09:46.372Z,11.57
2018-05-03T02:10:46.393Z,11.53
2018-05-03T02:11:46.361Z,11.49
2018-05-03T02:12:46.321Z,11.48
2018-05-03T02:13:46.267Z,11.49
2018-05-03T02:14:46.237Z,11.46
2018-05-03T02:15:46.214Z,11.35
2018-05-03T02:16:46.179Z,11.41
2018-05-03T02:17:46.199Z,11.45
2018-05-03T02:18:46.125Z,11.41
2018-05-03T02:19:46.107Z,11.39
2018-05-03T02:20:46.070Z,11.39
2018-05-03T02:21:46.093Z,11.42
2018-05-03T02:22:46.021Z,11.49
2018-05-03T02:23:45.992Z,11.49
2018-05-03T02:24:45.962Z,11.53
2018-05-03T02:25:45.943Z,11.51
2018-05-03T02:26:45.947Z,11.59
2018-05-03T02:27:45.890Z,11.56
2018-05-03T02:28:45.887Z,11.67
2018-05-03T02:29:45.861Z,11.67
2018-05-03T02:30:45.805Z,11.60
2018-05-03T02:31:45.780Z,11.76
2018-05-03T02:32:45.747Z,11.63
2018-05-03T02:33:45.722Z,11.60
2018-05-03T02:34:45.722Z,11.56
2018-05-03T02:35:45.665Z,11.53
2018-05-03T02:36:45.689Z,11.63
2018-05-03T02:37:45.615Z,11.61
2018-05-03T02:38:45.586Z,11.60
2018-05-03T02:39:45.589Z,11.60
2018-05-03T02:40:45.568Z,11.57
2018-05-03T02:41:45.557Z,11.63
2018-05-03T02:42:45.475Z,11.53
2018-05-03T02:43:45.455Z,11.59
2018-05-03T02:44:45.418Z,11.52
2018-05-03T02:45:45.393Z,11.60
2018-05-03T02:46:45.399Z,11.49
2018-05-03T02:47:45.340Z,11.57
2018-05-03T02:48:45.308Z,11.56
2018-05-03T02:49:45.290Z,11.60
2018-05-03T02:50:45.254Z,11.56
2018-05-03T02:51:45.267Z,11.60
2018-05-03T02:52:45.199Z,11.59
2018-05-03T02:53:45.221Z,11.56
2018-05-03T02:54:45.145Z,11.57
2018-05-03T02:55:45.115Z,11.57
2018-05-03T02:56:45.092Z,11.66
2018-05-03T02:57:45.060Z,11.60
2018-05-03T02:58:45.083Z,11.57
2018-05-03T02:59:45.006Z,11.57
2018-05-03T03:00:44.976Z,11.57
2018-05-03T03:01:45.732Z,11.63
2018-05-03T03:02:44.934Z,11.57
2018-05-03T03:03:44.942Z,11.60
2018-05-03T03:04:44.872Z,11.60
2018-05-03T03:05:44.845Z,11.63
2018-05-03T03:06:44.813Z,11.63
2018-05-03T03:07:44.790Z,11.57
2018-05-03T03:08:44.805Z,11.71
2018-05-03T03:09:44.760Z,11.67
2018-05-03T03:10:44.705Z,11.70
2018-05-03T03:11:44.678Z,11.66
2018-05-03T03:12:44.649Z,11.64
2018-05-03T03:13:44.669Z,11.68
2018-05-03T03:14:44.601Z,11.68
2018-05-03T03:15:44.569Z,11.60
2018-05-03T03:16:44.537Z,11.67
2018-05-03T03:17:44.512Z,11.64
2018-05-03T03:18:44.523Z,11.64
2018-05-03T03:19:44.490Z,11.70
2018-05-03T03:20:44.429Z,11.67
2018-05-03T03:21:44.686Z,11.53
2018-05-03T03:22:44.379Z,11.59
2018-05-03T03:23:45.152Z,11.59
2018-05-03T03:24:44.327Z,11.66
2018-05-03T03:25:44.693Z,11.66
2018-05-03T03:26:44.270Z,11.64
2018-05-03T03:27:45.147Z,11.63
2018-05-03T03:28:44.209Z,11.56
2018-05-03T03:29:44.227Z,11.71
2018-05-03T03:30:45.143Z,11.64
2018-05-03T03:31:44.135Z,11.70
2018-05-03T03:32:44.103Z,11.66
2018-05-03T03:33:44.645Z,11.66
2018-05-03T03:34:44.082Z,11.63
2018-05-03T03:35:44.025Z,11.63
2018-05-03T03:36:43.991Z,11.71
2018-05-03T03:37:44.649Z,11.66
2018-05-03T03:38:43.991Z,11.66
2018-05-03T03:39:43.950Z,11.63
2018-05-03T03:40:44.655Z,11.59
2018-05-03T03:41:43.858Z,11.59
2018-05-03T03:42:43.909Z,11.53
2018-05-03T03:43:43.854Z,11.52
2018-05-03T03:44:44.654Z,11.43
2018-05-03T03:45:43.785Z,11.38
2018-05-03T03:46:44.555Z,11.38
2018-05-03T03:47:43.699Z,11.39
2018-05-03T03:48:43.694Z,11.35
2018-05-03T03:49:43.689Z,11.35
2018-05-03T03:50:44.155Z,11.38
2018-05-03T03:51:43.586Z,11.33
2018-05-03T03:52:44.149Z,11.33
2018-05-03T03:53:43.569Z,11.35
2018-05-03T03:54:43.550Z,11.34
2018-05-03T03:55:43.484Z,11.33
2018-05-03T03:56:43.456Z,11.34
2018-05-03T03:57:44.158Z,11.33
2018-05-03T03:58:43.401Z,11.41
2018-05-03T03:59:43.405Z,11.33
2018-05-03T04:00:43.684Z,11.35
2018-05-03T04:01:43.324Z,11.30
2018-05-03T04:02:44.056Z,11.28
2018-05-03T04:03:44.158Z,11.24
2018-05-03T04:04:43.289Z,11.24
2018-05-03T04:05:43.207Z,11.30
2018-05-03T04:06:44.153Z,11.30
2018-05-03T04:07:43.154Z,11.30
2018-05-03T04:08:43.124Z,11.23
2018-05-03T04:09:43.126Z,11.30
2018-05-03T04:10:43.202Z,11.41
2018-05-03T04:11:43.043Z,11.38
2018-05-03T04:12:43.012Z,11.35
2018-05-03T04:13:43.650Z,11.34
2018-05-03T04:14:42.987Z,11.41
2018-05-03T04:15:42.978Z,11.42
2018-05-03T04:16:43.654Z,11.49
2018-05-03T04:17:42.880Z,11.49
2018-05-03T04:18:43.650Z,11.51
2018-05-03T04:19:42.825Z,11.53
2018-05-03T04:20:42.845Z,11.53
2018-05-03T04:21:43.664Z,11.53
2018-05-03T04:22:42.741Z,11.57
2018-05-03T04:23:42.717Z,11.63
2018-05-03T04:24:42.693Z,11.57
2018-05-03T04:25:42.705Z,11.63
2018-05-03T04:26:42.633Z,11.57
2018-05-03T04:27:42.605Z,11.57
2018-05-03T04:28:42.694Z,11.53
2018-05-03T04:29:42.549Z,11.56
2018-05-03T04:30:43.161Z,11.63
2018-05-03T04:31:42.538Z,11.59
2018-05-03T04:32:42.473Z,11.63
2018-05-03T04:33:42.445Z,11.64
2018-05-03T04:34:42.419Z,11.75
2018-05-03T04:35:43.223Z,11.67
2018-05-03T04:36:42.407Z,11.67
2018-05-03T04:37:42.338Z,11.64
2018-05-03T04:38:43.172Z,11.64
2018-05-03T04:39:42.283Z,11.67
2018-05-03T04:40:43.159Z,11.61
2018-05-03T04:41:42.272Z,11.67
2018-05-03T04:42:43.158Z,11.64
2018-05-03T04:43:42.181Z,11.67
2018-05-03T04:44:42.144Z,11.57
2018-05-03T04:45:42.664Z,11.64
2018-05-03T04:46:42.125Z,11.68
2018-05-03T04:47:42.071Z,11.61
2018-05-03T04:48:42.667Z,11.67
2018-05-03T04:49:42.056Z,11.68
2018-05-03T04:50:41.984Z,11.63
2018-05-03T04:51:42.660Z,11.70
2018-05-03T04:52:41.937Z,11.76
2018-05-03T04:53:41.947Z,11.81
2018-05-03T04:54:42.665Z,11.76
2018-05-03T04:55:41.861Z,11.81
2018-05-03T04:56:41.826Z,11.82
2018-05-03T04:57:41.807Z,11.86
2018-05-03T04:58:41.813Z,11.85
2018-05-03T04:59:42.661Z,12.00
2018-05-03T05:00:41.718Z,11.95
2018-05-03T05:01:42.208Z,11.95
2018-05-03T05:02:41.659Z,12.05
2018-05-03T05:03:41.639Z,12.04
2018-05-03T05:04:41.698Z,12.07
2018-05-03T05:05:42.166Z,12.10
2018-05-03T05:06:41.615Z,12.15
2018-05-03T05:07:41.524Z,12.15
2018-05-03T05:08:41.506Z,12.23
2018-05-03T05:09:41.489Z,12.22
2018-05-03T05:10:42.182Z,12.28
2018-05-03T05:11:41.464Z,12.33
2018-05-03T05:12:41.400Z,12.40
2018-05-03T05:13:42.161Z,12.43
2018-05-03T05:14:42.162Z,12.44
2018-05-03T05:15:41.320Z,12.59
2018-05-03T05:16:41.341Z,12.56
2018-05-03T05:17:41.262Z,12.66
2018-05-03T05:18:41.236Z,12.69
2018-05-03T05:19:41.211Z,12.70
2018-05-03T05:20:41.183Z,12.74
2018-05-03T05:21:41.210Z,12.70
2018-05-03T05:22:41.128Z,12.76
2018-05-03T05:23:41.141Z,12.83
2018-05-03T05:24:41.074Z,12.86
2018-05-03T05:25:41.049Z,12.92
2018-05-03T05:26:41.024Z,12.88
2018-05-03T05:27:41.052Z,13.06
2018-05-03T05:28:40.972Z,12.92
2018-05-03T05:29:40.961Z,13.01
2018-05-03T05:30:40.950Z,13.02
2018-05-03T05:31:40.895Z,12.99
2018-05-03T05:32:40.923Z,13.02
2018-05-03T05:33:40.846Z,13.10
2018-05-03T05:34:40.818Z,13.10
2018-05-03T05:35:40.800Z,13.16
2018-05-03T05:36:40.764Z,13.14
2018-05-03T05:37:40.769Z,13.10
2018-05-03T05:38:40.772Z,13.07
2018-05-03T05:39:40.689Z,13.07
2018-05-03T05:40:40.703Z,13.13
2018-05-03T05:41:40.637Z,13.06
2018-05-03T05:42:40.611Z,13.11
2018-05-03T05:43:40.590Z,13.09
2018-05-03T05:44:40.558Z,13.11
2018-05-03T05:45:40.570Z,13.16
2018-05-03T05:46:40.510Z,13.24
2018-05-03T05:47:41.179Z,13.31
2018-05-03T05:48:40.484Z,13.36
2018-05-03T05:49:40.498Z,13.39
2018-05-03T05:50:40.450Z,13.44
2018-05-03T05:51:40.388Z,13.48
2018-05-03T05:52:40.385Z,13.51
2018-05-03T05:53:40.328Z,13.62
2018-05-03T05:54:40.307Z,13.69
2018-05-03T05:55:40.315Z,13.75
2018-05-03T05:56:40.289Z,13.81
2018-05-03T05:57:40.237Z,13.99
2018-05-03T05:58:40.203Z,14.05
2018-05-03T05:59:40.229Z,14.11
2018-05-03T06:00:40.156Z,14.16
2018-05-03T06:01:40.131Z,14.33
2018-05-03T06:02:40.105Z,14.39
2018-05-03T06:03:40.075Z,14.49
2018-05-03T06:04:40.112Z,14.63
2018-05-03T06:05:40.027Z,14.74
2018-05-03T06:06:40.013Z,14.89
2018-05-03T06:07:39.975Z,14.98
2018-05-03T06:08:39.954Z,15.04
2018-05-03T06:09:39.974Z,15.18
2018-05-03T06:10:39.909Z,15.19
2018-05-03T06:11:39.884Z,15.20
2018-05-03T06:12:39.898Z,15.30
2018-05-03T06:13:39.839Z,15.27
2018-05-03T06:14:39.808Z,15.22
2018-05-03T06:15:39.817Z,15.31
2018-05-03T06:16:39.762Z,15.26
2018-05-03T06:17:39.779Z,15.44
2018-05-03T06:18:39.714Z,15.47
2018-05-03T06:19:39.718Z,15.47
2018-05-03T06:20:39.675Z,15.56
2018-05-03T06:21:39.642Z,15.56
2018-05-03T06:22:39.661Z,15.52
2018-05-03T06:23:39.595Z,15.59
2018-05-03T06:24:39.570Z,15.59
2018-05-03T06:25:39.587Z,15.59
2018-05-03T06:26:39.533Z,15.47
2018-05-03T06:27:39.506Z,15.55
2018-05-03T06:28:39.474Z,15.52
2018-05-03T06:29:39.489Z,15.53
2018-05-03T06:30:39.438Z,15.58
2018-05-03T06:31:39.411Z,15.62
2018-05-03T06:32:39.386Z,15.73
2018-05-03T06:33:39.361Z,15.71
2018-05-03T06:34:39.372Z,15.71
2018-05-03T06:35:39.364Z,15.71
2018-05-03T06:36:39.292Z,15.68
2018-05-03T06:37:39.270Z,15.68
2018-05-03T06:38:39.245Z,15.67
2018-05-03T06:39:39.250Z,15.71
2018-05-03T06:40:39.227Z,15.73
2018-05-03T06:41:39.176Z,15.84
2018-05-03T06:42:39.184Z,15.99
2018-05-03T06:43:39.123Z,15.80
2018-05-03T06:44:39.110Z,15.83
2018-05-03T06:45:39.130Z,15.89
2018-05-03T06:46:39.058Z,15.86
2018-05-03T06:47:39.038Z,15.92
2018-05-03T06:48:39.040Z,16.02
2018-05-03T06:49:38.986Z,16.08
2018-05-03T06:50:38.959Z,15.89
2018-05-03T06:51:39.035Z,15.83
2018-05-03T06:52:38.911Z,15.83
2018-05-03T06:53:38.925Z,15.77
2018-05-03T06:54:38.871Z,15.81
2018-05-03T06:55:38.842Z,15.81
2018-05-03T06:56:38.854Z,15.86
2018-05-03T06:57:38.845Z,15.88
2018-05-03T06:58:38.841Z,15.95
2018-05-03T06:59:38.753Z,15.83
2018-05-03T07:00:38.721Z,15.95
2018-05-03T07:01:39.682Z,15.96
2018-05-03T07:02:38.727Z,15.96
2018-05-03T07:03:38.652Z,16.02
2018-05-03T07:04:38.633Z,16.08
2018-05-03T07:05:38.607Z,16.21
2018-05-03T07:06:38.618Z,16.27
2018-05-03T07:07:38.597Z,16.25
2018-05-03T07:08:38.538Z,16.29
2018-05-03T07:09:38.516Z,15.89
2018-05-03T07:10:38.489Z,15.91
2018-05-03T07:11:38.504Z,15.93
2018-05-03T07:12:38.441Z,15.81
2018-05-03T07:13:38.459Z,15.88
2018-05-03T07:14:38.394Z,15.96
2018-05-03T07:15:38.367Z,15.81
2018-05-03T07:16:38.342Z,15.96
2018-05-03T07:17:38.328Z,15.86
2018-05-03T07:18:38.332Z,15.91
2018-05-03T07:19:38.747Z,15.96
2018-05-03T07:20:38.253Z,15.98
2018-05-03T07:21:38.229Z,16.11
2018-05-03T07:22:38.204Z,16.17
2018-05-03T07:23:38.179Z,16.17
2018-05-03T07:24:38.192Z,16.08
2018-05-03T07:25:38.136Z,16.10
2018-05-03T07:26:38.115Z,16.11
2018-05-03T07:27:38.098Z,16.13
2018-05-03T07:28:38.064Z,16.21
2018-05-03T07:29:38.076Z,16.21
2018-05-03T07:30:38.019Z,16.44
2018-05-03T07:31:38.707Z,16.47
2018-05-03T07:32:38.012Z,16.59
2018-05-03T07:33:37.993Z,16.70
2018-05-03T07:34:37.966Z,16.63
2018-05-03T07:35:37.905Z,16.58
2018-05-03T07:36:37.878Z,16.62
2018-05-03T07:37:37.858Z,16.52
2018-05-03T07:38:37.842Z,16.55
2018-05-03T07:39:37.857Z,16.58
2018-05-03T07:40:37.839Z,16.54
2018-05-03T07:41:38.693Z,16.45
2018-05-03T07:42:37.745Z,16.54
2018-05-03T07:43:37.723Z,16.54
2018-05-03T07:44:37.727Z,16.67
2018-05-03T07:45:37.689Z,16.67
2018-05-03T07:46:37.655Z,16.58
2018-05-03T07:47:38.190Z,16.87
2018-05-03T07:48:37.682Z,16.99
2018-05-03T07:49:37.584Z,17.07
2018-05-03T07:50:37.565Z,17.21
2018-05-03T07:51:37.539Z,17.07
2018-05-03T07:52:37.515Z,17.25
2018-05-03T07:53:37.529Z,17.12
2018-05-03T07:54:37.500Z,17.12
2018-05-03T07:55:38.196Z,16.76
2018-05-03T07:56:37.464Z,16.81
2018-05-03T07:57:37.402Z,16.77
2018-05-03T07:58:37.383Z,16.73
2018-05-03T07:59:39.491Z,16.66
2018-05-03T08:00:37.334Z,16.77
2018-05-03T08:01:37.319Z,16.65
2018-05-03T08:02:37.302Z,16.67
2018-05-03T08:03:37.270Z,16.40
2018-05-03T08:04:37.288Z,16.32
2018-05-03T08:05:37.229Z,16.27
2018-05-03T08:06:38.201Z,16.02
2018-05-03T08:07:37.182Z,15.99
2018-05-03T08:08:37.155Z,15.96
2018-05-03T08:09:37.185Z,15.95
2018-05-03T08:10:37.109Z,15.92
2018-05-03T08:11:37.701Z,15.98
2018-05-03T08:12:37.113Z,15.83
2018-05-03T08:13:37.036Z,15.77
2018-05-03T08:14:37.078Z,15.70
2018-05-03T08:15:36.993Z,15.65
2018-05-03T08:16:37.703Z,15.68
2018-05-03T08:17:36.949Z,15.60
2018-05-03T08:18:36.922Z,15.71
2018-05-03T08:19:36.928Z,15.78
2018-05-03T08:20:36.917Z,15.74
2018-05-03T08:21:37.706Z,15.88
2018-05-03T08:22:36.823Z,15.93
2018-05-03T08:23:36.798Z,15.96
2018-05-03T08:24:36.783Z,16.08
2018-05-03T08:25:36.818Z,16.07
2018-05-03T08:26:37.243Z,16.16
2018-05-03T08:27:36.703Z,16.14
2018-05-03T08:28:37.238Z,16.17
2018-05-03T08:29:36.661Z,16.17
2018-05-03T08:30:36.669Z,16.16
2018-05-03T08:31:36.605Z,16.21
2018-05-03T08:32:36.581Z,16.27
2018-05-03T08:33:36.554Z,16.25
2018-05-03T08:34:36.533Z,16.36
2018-05-03T08:35:36.552Z,16.33
2018-05-03T08:36:36.557Z,16.34
2018-05-03T08:37:36.459Z,16.34
2018-05-03T08:38:36.439Z,16.33
2018-05-03T08:39:36.409Z,16.26
2018-05-03T08:40:36.426Z,16.40
2018-05-03T08:41:36.411Z,16.47
2018-05-03T08:42:36.346Z,16.49
2018-05-03T08:43:36.313Z,16.48
2018-05-03T08:44:36.292Z,16.51
2018-05-03T08:45:36.263Z,16.57
2018-05-03T08:46:36.284Z,16.69
2018-05-03T08:47:36.277Z,16.63
2018-05-03T08:48:36.197Z,16.72
2018-05-03T08:49:36.170Z,16.70
2018-05-03T08:50:36.147Z,16.66
2018-05-03T08:51:50.717Z,16.72
2018-05-03T08:52:36.136Z,16.73
2018-05-03T08:53:36.074Z,16.62
2018-05-03T08:54:36.059Z,16.66
2018-05-03T08:55:36.044Z,16.80
2018-05-03T08:56:36.000Z,16.67
2018-05-03T08:57:36.008Z,16.72
2018-05-03T08:58:35.949Z,16.81
2018-05-03T08:59:35.963Z,16.66
2018-05-03T09:00:35.898Z,16.70
2018-05-03T09:01:35.966Z,16.65
2018-05-03T09:02:35.897Z,16.66
2018-05-03T09:03:35.835Z,16.74
2018-05-03T09:04:35.809Z,16.76
2018-05-03T09:05:35.785Z,16.67
2018-05-03T09:06:35.765Z,16.63
2018-05-03T09:07:35.864Z,16.65
2018-05-03T09:08:35.748Z,16.72
2018-05-03T09:09:35.689Z,16.72
2018-05-03T09:10:35.693Z,16.81
2018-05-03T09:11:36.212Z,16.88
2018-05-03T09:12:35.621Z,16.84
2018-05-03T09:13:35.636Z,16.88
2018-05-03T09:14:35.568Z,16.88
2018-05-03T09:15:35.552Z,16.90
2018-05-03T09:16:36.270Z,16.84
2018-05-03T09:17:35.496Z,16.80
2018-05-03T09:18:35.514Z,16.67
2018-05-03T09:19:35.444Z,16.77
2018-05-03T09:20:35.428Z,16.81
2018-05-03T09:21:36.213Z,16.84
2018-05-03T09:22:35.373Z,16.87
2018-05-03T09:23:35.396Z,16.97
2018-05-03T09:24:35.381Z,16.82
2018-05-03T09:25:35.309Z,16.88
2018-05-03T09:26:35.280Z,17.03
2018-05-03T09:27:35.259Z,17.07
2018-05-03T09:28:35.267Z,17.07
2018-05-03T09:29:35.217Z,17.25
2018-05-03T09:30:35.215Z,17.06
2018-05-03T09:31:35.735Z,17.09
2018-05-03T09:32:35.144Z,17.02
2018-05-03T09:33:35.113Z,17.10
2018-05-03T09:34:35.089Z,17.09
2018-05-03T09:35:35.110Z,17.25
2018-05-03T09:36:37.731Z,17.31
2018-05-03T09:37:35.021Z,17.49
2018-05-03T09:38:35.045Z,17.54
2018-05-03T09:39:35.025Z,17.79
2018-05-03T09:40:35.716Z,17.90
2018-05-03T09:41:34.920Z,18.03
2018-05-03T09:42:34.904Z,18.19
2018-05-03T09:43:34.879Z,18.24
2018-05-03T09:44:34.890Z,18.34
2018-05-03T09:45:35.283Z,18.34
2018-05-03T09:46:34.808Z,18.34
2018-05-03T09:47:34.785Z,18.45
2018-05-03T09:48:34.762Z,18.36
2018-05-03T09:49:34.746Z,18.50
2018-05-03T09:50:34.754Z,18.47
2018-05-03T09:51:35.273Z,18.36
2018-05-03T09:52:34.753Z,18.34
2018-05-03T09:53:34.647Z,18.42
2018-05-03T09:54:34.648Z,18.34
2018-05-03T09:55:34.643Z,18.23
2018-05-03T09:56:34.623Z,18.31
2018-05-03T09:57:34.561Z,18.20
2018-05-03T09:58:34.544Z,18.24
2018-05-03T09:59:34.519Z,18.23
2018-05-03T10:00:34.525Z,18.08
2018-05-03T10:01:34.475Z,18.01
2018-05-03T10:02:34.455Z,18.06
2018-05-03T10:03:34.436Z,17.90
2018-05-03T10:04:34.409Z,17.87
2018-05-03T10:05:34.421Z,18.02
2018-05-03T10:06:34.373Z,18.03
2018-05-03T10:07:34.352Z,18.06
2018-05-03T10:08:34.357Z,18.16
2018-05-03T10:09:34.297Z,18.20
2018-05-03T10:10:34.310Z,18.29
2018-05-03T10:11:34.295Z,18.38
2018-05-03T10:12:34.237Z,18.42
2018-05-03T10:13:34.208Z,18.34
2018-05-03T10:14:34.196Z,18.20
2018-05-03T10:15:34.165Z,18.06
2018-05-03T10:16:34.227Z,17.98
2018-05-03T10:17:34.140Z,17.94
2018-05-03T10:18:34.097Z,18.03
2018-05-03T10:19:34.076Z,18.05
2018-05-03T10:20:34.055Z,18.08
2018-05-03T10:21:34.073Z,18.06
2018-05-03T10:22:34.080Z,18.05
2018-05-03T10:23:33.985Z,18.06
2018-05-03T10:24:33.965Z,17.87
2018-05-03T10:25:33.944Z,17.95
2018-05-03T10:26:33.976Z,18.01
2018-05-03T10:27:33.891Z,17.99
2018-05-03T10:28:33.869Z,17.94
2018-05-03T10:29:33.858Z,17.80
2018-05-03T10:30:34.731Z,18.02
2018-05-03T10:31:33.864Z,18.02
2018-05-03T10:32:33.780Z,18.05
2018-05-03T10:33:33.755Z,18.08
2018-05-03T10:34:33.733Z,18.01
2018-05-03T10:35:33.711Z,18.03
2018-05-03T10:36:33.731Z,18.06
2018-05-03T10:37:33.662Z,18.06
2018-05-03T10:38:33.688Z,18.05
2018-05-03T10:39:33.618Z,18.08
2018-05-03T10:40:34.233Z,18.17
2018-05-03T10:41:33.575Z,18.16
2018-05-03T10:42:33.547Z,18.19
2018-05-03T10:43:33.566Z,18.24
2018-05-03T10:44:33.506Z,18.32
2018-05-03T10:45:34.280Z,18.34
2018-05-03T10:46:33.456Z,18.41
2018-05-03T10:47:33.478Z,18.50
2018-05-03T10:48:33.410Z,18.45
2018-05-03T10:49:33.390Z,18.49
2018-05-03T10:50:33.373Z,18.49
2018-05-03T10:51:33.347Z,18.63
2018-05-03T10:52:33.349Z,18.61
2018-05-03T10:53:33.310Z,18.61
2018-05-03T10:54:33.274Z,18.60
2018-05-03T10:55:34.235Z,18.61
2018-05-03T10:56:33.281Z,18.63
2018-05-03T10:57:33.270Z,18.74
2018-05-03T10:58:33.184Z,18.76
2018-05-03T10:59:33.157Z,18.82
2018-05-03T11:00:33.305Z,18.79
2018-05-03T11:01:33.201Z,18.79
2018-05-03T11:02:33.104Z,18.84
2018-05-03T11:03:33.074Z,18.86
2018-05-03T11:04:33.059Z,18.96
2018-05-03T11:05:33.884Z,18.96
2018-05-03T11:06:33.038Z,18.96
2018-05-03T11:07:33.025Z,18.75
2018-05-03T11:08:32.952Z,18.79
2018-05-03T11:09:32.949Z,18.75
2018-05-03T11:10:33.739Z,18.82
2018-05-03T11:11:32.886Z,18.61
2018-05-03T11:12:32.915Z,18.68
2018-05-03T11:13:32.885Z,18.65
2018-05-03T11:14:32.852Z,18.63
2018-05-03T11:15:33.759Z,18.66
2018-05-03T11:16:32.895Z,18.79
2018-05-03T11:17:32.751Z,18.78
2018-05-03T11:18:32.728Z,18.76
2018-05-03T11:19:32.718Z,18.74
2018-05-03T11:20:32.689Z,18.74
2018-05-03T11:21:32.705Z,18.86
2018-05-03T11:22:32.641Z,18.91
2018-05-03T11:23:32.630Z,18.99
2018-05-03T11:24:32.595Z,19.05
2018-05-03T11:25:32.573Z,19.10
2018-05-03T11:26:32.595Z,19.20
2018-05-03T11:27:32.529Z,19.19
2018-05-03T11:28:32.594Z,19.20
2018-05-03T11:29:32.481Z,19.15
2018-05-03T11:30:32.471Z,19.19
2018-05-03T11:31:32.522Z,19.37
2018-05-03T11:32:32.412Z,19.40
2018-05-03T11:33:32.450Z,19.32
2018-05-03T11:34:32.374Z,19.37
2018-05-03T11:35:32.357Z,19.49
2018-05-03T11:36:32.331Z,19.60
2018-05-03T11:37:32.305Z,19.78
2018-05-03T11:38:32.338Z,19.95
2018-05-03T11:39:32.266Z,20.00
2018-05-03T11:40:32.239Z,19.93
2018-05-03T11:41:32.223Z,19.90
2018-05-03T11:42:32.237Z,20.00
2018-05-03T11:43:32.219Z,20.04
2018-05-03T11:44:32.303Z,19.97
2018-05-03T11:45:32.181Z,20.00
2018-05-03T11:46:32.147Z,19.80
2018-05-03T11:47:32.089Z,19.75
2018-05-03T11:48:32.067Z,19.57
2018-05-03T11:49:32.046Z,19.56
2018-05-03T11:50:32.068Z,19.43
2018-05-03T11:51:32.008Z,19.42
2018-05-03T11:52:31.978Z,19.43
2018-05-03T11:53:31.959Z,19.34
2018-05-03T11:54:31.938Z,19.32
2018-05-03T11:55:31.969Z,19.45
2018-05-03T11:56:31.895Z,19.43
2018-05-03T11:57:31.875Z,19.35
2018-05-03T11:58:31.852Z,19.16
2018-05-03T11:59:32.009Z,19.06
2018-05-03T12:00:31.859Z,19.00
2018-05-03T12:01:31.785Z,18.97
2018-05-03T12:02:31.859Z,19.02
2018-05-03T12:03:31.739Z,19.02
2018-05-03T12:04:32.277Z,19.12
2018-05-03T12:05:31.702Z,19.05
2018-05-03T12:06:31.722Z,19.10
2018-05-03T12:07:31.692Z,19.16
2018-05-03T12:08:31.634Z,19.15
2018-05-03T12:09:32.251Z,19.17
2018-05-03T12:10:31.627Z,19.23
2018-05-03T12:11:31.567Z,19.25
2018-05-03T12:12:31.576Z,19.32
2018-05-03T12:13:31.523Z,19.30
2018-05-03T12:14:31.496Z,19.19
2018-05-03T12:15:31.480Z,19.12
2018-05-03T12:16:31.463Z,19.06
2018-05-03T12:17:31.467Z,19.09
2018-05-03T12:18:31.413Z,19.09
2018-05-03T12:19:31.388Z,18.97
2018-05-03T12:20:31.422Z,19.10
2018-05-03T12:21:31.342Z,19.02
2018-05-03T12:22:32.257Z,18.99
2018-05-03T12:23:31.302Z,18.99
2018-05-03T12:24:31.274Z,18.91
2018-05-03T12:25:31.288Z,18.79
2018-05-03T12:26:31.230Z,18.94
2018-05-03T12:27:31.759Z,18.79
2018-05-03T12:28:31.182Z,18.75
2018-05-03T12:29:31.211Z,18.60
2018-05-03T12:30:31.145Z,18.71
2018-05-03T12:31:31.761Z,18.72
2018-05-03T12:32:31.139Z,18.71
2018-05-03T12:33:31.110Z,18.66
2018-05-03T12:34:31.046Z,18.74
2018-05-03T12:35:31.035Z,18.78
2018-05-03T12:36:31.759Z,18.79
2018-05-03T12:37:30.982Z,18.91
2018-05-03T12:38:30.997Z,18.79
2018-05-03T12:39:30.934Z,18.82
2018-05-03T12:40:30.956Z,18.87
2018-05-03T12:41:30.887Z,18.93
2018-05-03T12:42:30.869Z,18.93
2018-05-03T12:43:30.881Z,18.93
2018-05-03T12:44:30.819Z,18.91
2018-05-03T12:45:30.796Z,19.05
2018-05-03T12:46:30.790Z,18.99
2018-05-03T12:47:31.270Z,18.96
2018-05-03T12:48:30.782Z,19.05
2018-05-03T12:49:30.750Z,19.05
2018-05-03T12:50:30.732Z,19.07
2018-05-03T12:51:30.658Z,18.97
2018-05-03T12:52:30.653Z,19.06